sensor_id;sensor_type;location;lat;lon;timestamp;temperature;humidity
23377;DHT22;14353;46.070;13.222;2022-12-11T00:00:14;18.20;52.40
23377;DHT22;14353;46.070;13.222;2022-12-11T00:02:43;18.20;52.40
23377;DHT22;14353;46.070;13.222;2022-12-11T00:05:15;18.20;52.40
23377;DHT22;14353;46.070;13.222;2022-12-11T00:07:46;18.10;52.40
23377;DHT22;14353;46.070;13.222;2022-12-11T00:10:21;18.10;52.40
23377;DHT22;14353;46.070;13.222;2022-12-11T00:12:50;18.10;52.30
23377;DHT22;14353;46.070;13.222;2022-12-11T00:15:27;18.10;52.30
23377;DHT22;14353;46.070;13.222;2022-12-11T00:17:53;18.10;52.40
23377;DHT22;14353;46.070;13.222;2022-12-11T00:20:18;18.10;52.30
23377;DHT22;14353;46.070;13.222;2022-12-11T00:22:56;18.10;52.40
23377;DHT22;14353;46.070;13.222;2022-12-11T00:25:22;18.10;52.40
23377;DHT22;14353;46.070;13.222;2022-12-11T00:27:53;18.10;52.40
23377;DHT22;14353;46.070;13.222;2022-12-11T00:30:19;18.10;52.30
23377;DHT22;14353;46.070;13.222;2022-12-11T00:33:06;18.10;52.30
23377;DHT22;14353;46.070;13.222;2022-12-11T00:35:36;18.10;52.40
23377;DHT22;14353;46.070;13.222;2022-12-11T00:38:03;18.10;52.40
23377;DHT22;14353;46.070;13.222;2022-12-11T00:40:29;18.10;52.40
23377;DHT22;14353;46.070;13.222;2022-12-11T00:43:05;18.10;52.40
23377;DHT22;14353;46.070;13.222;2022-12-11T00:45:35;18.10;52.40
23377;DHT22;14353;46.070;13.222;2022-12-11T00:48:01;18.10;52.40
23377;DHT22;14353;46.070;13.222;2022-12-11T00:50:27;18.10;52.40
23377;DHT22;14353;46.070;13.222;2022-12-11T00:52:53;18.10;52.40
23377;DHT22;14353;46.070;13.222;2022-12-11T00:55:18;18.10;52.40
23377;DHT22;14353;46.070;13.222;2022-12-11T00:57:44;18.10;52.40
23377;DHT22;14353;46.070;13.222;2022-12-11T01:00:13;18.10;52.40
23377;DHT22;14353;46.070;13.222;2022-12-11T01:02:39;18.10;52.40
23377;DHT22;14353;46.070;13.222;2022-12-11T01:05:08;18.10;52.40
23377;DHT22;14353;46.070;13.222;2022-12-11T01:07:40;18.10;52.40
23377;DHT22;14353;46.070;13.222;2022-12-11T01:10:10;18.10;52.40
23377;DHT22;14353;46.070;13.222;2022-12-11T01:15:15;18.10;52.40
23377;DHT22;14353;46.070;13.222;2022-12-11T01:17:43;18.10;52.40
23377;DHT22;14353;46.070;13.222;2022-12-11T01:20:12;18.10;52.40
23377;DHT22;14353;46.070;13.222;2022-12-11T01:22:38;18.00;52.30
23377;DHT22;14353;46.070;13.222;2022-12-11T01:25:04;18.10;52.40
23377;DHT22;14353;46.070;13.222;2022-12-11T01:27:33;18.10;52.40
23377;DHT22;14353;46.070;13.222;2022-12-11T01:30:04;18.00;52.40
23377;DHT22;14353;46.070;13.222;2022-12-11T01:32:34;18.00;52.40
23377;DHT22;14353;46.070;13.222;2022-12-11T01:35:02;18.00;52.40
23377;DHT22;14353;46.070;13.222;2022-12-11T01:37:29;18.00;52.30
23377;DHT22;14353;46.070;13.222;2022-12-11T01:39:59;18.00;52.30
23377;DHT22;14353;46.070;13.222;2022-12-11T01:42:27;18.00;52.40
23377;DHT22;14353;46.070;13.222;2022-12-11T01:45:24;18.00;52.40
23377;DHT22;14353;46.070;13.222;2022-12-11T01:48:08;18.00;52.40
23377;DHT22;14353;46.070;13.222;2022-12-11T01:50:42;18.00;52.40
23377;DHT22;14353;46.070;13.222;2022-12-11T01:53:16;18.00;52.40
23377;DHT22;14353;46.070;13.222;2022-12-11T01:55:46;18.00;52.40
23377;DHT22;14353;46.070;13.222;2022-12-11T01:58:20;18.00;52.40
23377;DHT22;14353;46.070;13.222;2022-12-11T02:00:47;18.00;52.30
23377;DHT22;14353;46.070;13.222;2022-12-11T02:03:15;18.00;52.40
23377;DHT22;14353;46.070;13.222;2022-12-11T02:05:44;18.00;52.30
23377;DHT22;14353;46.070;13.222;2022-12-11T02:08:15;18.00;52.30
23377;DHT22;14353;46.070;13.222;2022-12-11T02:11:17;18.00;52.30
23377;DHT22;14353;46.070;13.222;2022-12-11T02:14:27;18.00;52.40
23377;DHT22;14353;46.070;13.222;2022-12-11T02:16:56;18.00;52.30
23377;DHT22;14353;46.070;13.222;2022-12-11T02:19:30;18.00;52.30
23377;DHT22;14353;46.070;13.222;2022-12-11T02:30:36;17.90;52.30
23377;DHT22;14353;46.070;13.222;2022-12-11T02:33:07;18.00;52.40
23377;DHT22;14353;46.070;13.222;2022-12-11T02:35:40;17.90;52.30
23377;DHT22;14353;46.070;13.222;2022-12-11T02:38:28;18.00;52.40
23377;DHT22;14353;46.070;13.222;2022-12-11T02:40:58;17.90;52.30
23377;DHT22;14353;46.070;13.222;2022-12-11T02:43:35;17.90;52.30
23377;DHT22;14353;46.070;13.222;2022-12-11T02:46:06;17.90;52.30
23377;DHT22;14353;46.070;13.222;2022-12-11T02:48:35;17.90;52.20
23377;DHT22;14353;46.070;13.222;2022-12-11T02:51:05;17.90;52.30
23377;DHT22;14353;46.070;13.222;2022-12-11T02:53:41;17.90;52.30
23377;DHT22;14353;46.070;13.222;2022-12-11T02:56:26;17.90;52.30
23377;DHT22;14353;46.070;13.222;2022-12-11T02:59:08;17.90;52.30
23377;DHT22;14353;46.070;13.222;2022-12-11T03:01:37;17.90;52.30
23377;DHT22;14353;46.070;13.222;2022-12-11T03:04:05;17.90;52.30
23377;DHT22;14353;46.070;13.222;2022-12-11T03:06:35;17.90;52.30
23377;DHT22;14353;46.070;13.222;2022-12-11T03:09:03;17.90;52.20
23377;DHT22;14353;46.070;13.222;2022-12-11T03:11:29;17.90;52.20
23377;DHT22;14353;46.070;13.222;2022-12-11T03:13:55;17.90;52.30
23377;DHT22;14353;46.070;13.222;2022-12-11T03:16:34;17.90;52.20
23377;DHT22;14353;46.070;13.222;2022-12-11T03:22:06;17.90;52.20
23377;DHT22;14353;46.070;13.222;2022-12-11T03:24:37;17.90;52.20
23377;DHT22;14353;46.070;13.222;2022-12-11T03:27:27;17.90;52.20
23377;DHT22;14353;46.070;13.222;2022-12-11T03:30:12;17.90;52.20
23377;DHT22;14353;46.070;13.222;2022-12-11T03:32:51;17.90;52.20
23377;DHT22;14353;46.070;13.222;2022-12-11T03:35:34;17.90;52.20
23377;DHT22;14353;46.070;13.222;2022-12-11T03:38:07;17.90;52.90
23377;DHT22;14353;46.070;13.222;2022-12-11T03:40:35;17.90;52.20
23377;DHT22;14353;46.070;13.222;2022-12-11T03:43:02;17.90;52.20
23377;DHT22;14353;46.070;13.222;2022-12-11T03:45:32;17.90;52.30
23377;DHT22;14353;46.070;13.222;2022-12-11T03:48:00;17.80;52.20
23377;DHT22;14353;46.070;13.222;2022-12-11T03:50:29;17.80;52.20
23377;DHT22;14353;46.070;13.222;2022-12-11T03:52:59;17.80;52.20
23377;DHT22;14353;46.070;13.222;2022-12-11T03:55:26;17.80;52.80
23377;DHT22;14353;46.070;13.222;2022-12-11T03:57:56;17.80;52.20
23377;DHT22;14353;46.070;13.222;2022-12-11T04:00:22;17.80;52.20
23377;DHT22;14353;46.070;13.222;2022-12-11T04:02:49;17.80;52.20
23377;DHT22;14353;46.070;13.222;2022-12-11T04:05:35;17.80;52.20
23377;DHT22;14353;46.070;13.222;2022-12-11T04:08:01;17.80;52.10
23377;DHT22;14353;46.070;13.222;2022-12-11T04:10:27;17.80;52.10
23377;DHT22;14353;46.070;13.222;2022-12-11T04:12:55;17.80;52.10
23377;DHT22;14353;46.070;13.222;2022-12-11T04:15:24;17.80;52.10
23377;DHT22;14353;46.070;13.222;2022-12-11T04:17:52;17.80;52.20
23377;DHT22;14353;46.070;13.222;2022-12-11T04:20:38;17.80;52.10
23377;DHT22;14353;46.070;13.222;2022-12-11T04:23:23;17.80;52.10
23377;DHT22;14353;46.070;13.222;2022-12-11T04:26:09;17.80;52.10
23377;DHT22;14353;46.070;13.222;2022-12-11T04:28:44;17.80;52.10
23377;DHT22;14353;46.070;13.222;2022-12-11T04:31:20;17.80;52.10
23377;DHT22;14353;46.070;13.222;2022-12-11T04:33:46;17.80;52.10
23377;DHT22;14353;46.070;13.222;2022-12-11T04:36:26;17.80;52.10
23377;DHT22;14353;46.070;13.222;2022-12-11T04:38:58;17.80;52.10
23377;DHT22;14353;46.070;13.222;2022-12-11T04:41:23;17.80;52.10
23377;DHT22;14353;46.070;13.222;2022-12-11T04:44:00;17.80;52.10
23377;DHT22;14353;46.070;13.222;2022-12-11T04:46:26;17.80;52.10
23377;DHT22;14353;46.070;13.222;2022-12-11T04:48:52;17.80;52.10
23377;DHT22;14353;46.070;13.222;2022-12-11T04:51:18;17.80;52.10
23377;DHT22;14353;46.070;13.222;2022-12-11T04:53:48;17.80;52.10
23377;DHT22;14353;46.070;13.222;2022-12-11T04:56:15;17.80;52.10
23377;DHT22;14353;46.070;13.222;2022-12-11T04:58:42;17.80;52.10
23377;DHT22;14353;46.070;13.222;2022-12-11T05:01:21;17.70;52.10
23377;DHT22;14353;46.070;13.222;2022-12-11T05:03:58;17.70;52.10
23377;DHT22;14353;46.070;13.222;2022-12-11T05:06:24;17.70;52.10
23377;DHT22;14353;46.070;13.222;2022-12-11T05:08:57;17.80;52.20
23377;DHT22;14353;46.070;13.222;2022-12-11T05:11:29;17.70;52.00
23377;DHT22;14353;46.070;13.222;2022-12-11T05:13:55;17.70;52.10
23377;DHT22;14353;46.070;13.222;2022-12-11T05:16:20;17.70;52.10
23377;DHT22;14353;46.070;13.222;2022-12-11T05:18:46;17.70;52.10
23377;DHT22;14353;46.070;13.222;2022-12-11T05:21:14;17.70;52.10
23377;DHT22;14353;46.070;13.222;2022-12-11T05:23:43;17.70;52.00
23377;DHT22;14353;46.070;13.222;2022-12-11T05:26:15;17.70;52.10
23377;DHT22;14353;46.070;13.222;2022-12-11T05:28:44;17.70;52.00
23377;DHT22;14353;46.070;13.222;2022-12-11T05:31:16;17.70;52.10
23377;DHT22;14353;46.070;13.222;2022-12-11T05:33:43;17.70;52.10
23377;DHT22;14353;46.070;13.222;2022-12-11T05:39:02;17.70;52.00
23377;DHT22;14353;46.070;13.222;2022-12-11T05:41:39;17.70;52.00
23377;DHT22;14353;46.070;13.222;2022-12-11T05:44:05;17.70;52.00
23377;DHT22;14353;46.070;13.222;2022-12-11T05:46:31;17.70;52.10
23377;DHT22;14353;46.070;13.222;2022-12-11T05:49:01;17.70;52.00
23377;DHT22;14353;46.070;13.222;2022-12-11T05:51:30;17.70;52.00
23377;DHT22;14353;46.070;13.222;2022-12-11T05:53:59;17.70;52.00
23377;DHT22;14353;46.070;13.222;2022-12-11T05:56:35;17.70;52.00
23377;DHT22;14353;46.070;13.222;2022-12-11T05:59:07;17.70;52.00
23377;DHT22;14353;46.070;13.222;2022-12-11T06:01:36;17.70;52.10
23377;DHT22;14353;46.070;13.222;2022-12-11T06:04:04;17.70;52.00
23377;DHT22;14353;46.070;13.222;2022-12-11T06:06:31;17.70;52.00
23377;DHT22;14353;46.070;13.222;2022-12-11T06:09:00;17.70;52.00
23377;DHT22;14353;46.070;13.222;2022-12-11T06:11:38;17.70;52.10
23377;DHT22;14353;46.070;13.222;2022-12-11T06:14:04;17.70;52.00
23377;DHT22;14353;46.070;13.222;2022-12-11T06:16:32;17.70;52.00
23377;DHT22;14353;46.070;13.222;2022-12-11T06:18:58;17.70;52.00
23377;DHT22;14353;46.070;13.222;2022-12-11T06:21:34;17.70;52.00
23377;DHT22;14353;46.070;13.222;2022-12-11T06:24:05;17.60;52.00
23377;DHT22;14353;46.070;13.222;2022-12-11T06:26:31;17.60;52.00
23377;DHT22;14353;46.070;13.222;2022-12-11T06:28:57;17.60;52.00
23377;DHT22;14353;46.070;13.222;2022-12-11T06:31:25;17.60;52.00
23377;DHT22;14353;46.070;13.222;2022-12-11T06:33:51;17.60;51.90
23377;DHT22;14353;46.070;13.222;2022-12-11T06:36:19;17.60;51.90
23377;DHT22;14353;46.070;13.222;2022-12-11T06:38:48;17.60;51.90
23377;DHT22;14353;46.070;13.222;2022-12-11T06:41:16;17.60;51.90
23377;DHT22;14353;46.070;13.222;2022-12-11T06:43:43;17.60;51.90
23377;DHT22;14353;46.070;13.222;2022-12-11T06:46:16;17.60;51.90
23377;DHT22;14353;46.070;13.222;2022-12-11T06:48:51;17.70;52.00
23377;DHT22;14353;46.070;13.222;2022-12-11T06:51:21;17.60;51.90
23377;DHT22;14353;46.070;13.222;2022-12-11T06:53:57;17.60;51.90
23377;DHT22;14353;46.070;13.222;2022-12-11T06:56:24;17.60;51.90
23377;DHT22;14353;46.070;13.222;2022-12-11T06:58:49;17.60;51.90
23377;DHT22;14353;46.070;13.222;2022-12-11T07:01:24;17.60;51.90
23377;DHT22;14353;46.070;13.222;2022-12-11T07:04:02;17.60;51.90
23377;DHT22;14353;46.070;13.222;2022-12-11T07:06:33;17.60;52.00
23377;DHT22;14353;46.070;13.222;2022-12-11T07:11:39;17.60;51.90
23377;DHT22;14353;46.070;13.222;2022-12-11T07:14:08;17.60;51.90
23377;DHT22;14353;46.070;13.222;2022-12-11T07:16:34;17.60;51.80
23377;DHT22;14353;46.070;13.222;2022-12-11T07:19:02;17.60;51.90
23377;DHT22;14353;46.070;13.222;2022-12-11T07:21:31;17.60;51.80
23377;DHT22;14353;46.070;13.222;2022-12-11T07:23:57;17.60;51.80
23377;DHT22;14353;46.070;13.222;2022-12-11T07:26:24;17.60;51.80
23377;DHT22;14353;46.070;13.222;2022-12-11T07:28:56;17.60;51.80
23377;DHT22;14353;46.070;13.222;2022-12-11T07:31:27;17.60;51.80
23377;DHT22;14353;46.070;13.222;2022-12-11T07:33:54;17.60;51.80
23377;DHT22;14353;46.070;13.222;2022-12-11T07:36:26;17.60;51.80
23377;DHT22;14353;46.070;13.222;2022-12-11T07:38:55;17.60;51.80
23377;DHT22;14353;46.070;13.222;2022-12-11T07:41:24;17.60;51.80
23377;DHT22;14353;46.070;13.222;2022-12-11T07:43:52;17.50;51.80
23377;DHT22;14353;46.070;13.222;2022-12-11T07:46:22;17.60;51.80
23377;DHT22;14353;46.070;13.222;2022-12-11T07:48:49;17.50;51.70
23377;DHT22;14353;46.070;13.222;2022-12-11T07:51:22;17.60;51.70
23377;DHT22;14353;46.070;13.222;2022-12-11T07:53:52;17.50;51.70
23377;DHT22;14353;46.070;13.222;2022-12-11T07:56:30;17.60;51.70
23377;DHT22;14353;46.070;13.222;2022-12-11T07:58:59;17.50;51.60
23377;DHT22;14353;46.070;13.222;2022-12-11T08:01:29;17.50;51.60
23377;DHT22;14353;46.070;13.222;2022-12-11T08:03:57;17.50;51.50
23377;DHT22;14353;46.070;13.222;2022-12-11T08:06:29;17.50;51.50
23377;DHT22;14353;46.070;13.222;2022-12-11T08:08:57;17.50;51.50
23377;DHT22;14353;46.070;13.222;2022-12-11T08:11:24;17.60;51.50
23377;DHT22;14353;46.070;13.222;2022-12-11T08:13:59;17.50;51.40
23377;DHT22;14353;46.070;13.222;2022-12-11T08:16:34;17.50;51.40
23377;DHT22;14353;46.070;13.222;2022-12-11T08:19:00;17.50;51.40
23377;DHT22;14353;46.070;13.222;2022-12-11T08:21:28;17.60;51.40
23377;DHT22;14353;46.070;13.222;2022-12-11T08:23:54;17.50;51.40
23377;DHT22;14353;46.070;13.222;2022-12-11T08:26:25;17.60;51.40
23377;DHT22;14353;46.070;13.222;2022-12-11T08:28:51;17.50;51.40
23377;DHT22;14353;46.070;13.222;2022-12-11T08:31:27;17.50;51.40
23377;DHT22;14353;46.070;13.222;2022-12-11T08:33:54;17.50;51.40
23377;DHT22;14353;46.070;13.222;2022-12-11T08:36:21;17.50;51.40
23377;DHT22;14353;46.070;13.222;2022-12-11T08:38:50;17.50;51.40
23377;DHT22;14353;46.070;13.222;2022-12-11T08:41:22;17.50;51.40
23377;DHT22;14353;46.070;13.222;2022-12-11T08:43:52;17.50;51.30
23377;DHT22;14353;46.070;13.222;2022-12-11T08:46:24;17.50;51.30
23377;DHT22;14353;46.070;13.222;2022-12-11T08:48:51;17.50;51.30
23377;DHT22;14353;46.070;13.222;2022-12-11T08:51:20;17.50;51.30
23377;DHT22;14353;46.070;13.222;2022-12-11T08:53:48;17.50;51.30
23377;DHT22;14353;46.070;13.222;2022-12-11T08:56:18;17.50;51.30
23377;DHT22;14353;46.070;13.222;2022-12-11T08:58:58;17.50;51.30
23377;DHT22;14353;46.070;13.222;2022-12-11T09:01:29;17.40;51.20
23377;DHT22;14353;46.070;13.222;2022-12-11T09:03:58;17.50;51.30
23377;DHT22;14353;46.070;13.222;2022-12-11T09:06:31;17.50;51.20
23377;DHT22;14353;46.070;13.222;2022-12-11T09:08:58;17.40;51.20
23377;DHT22;14353;46.070;13.222;2022-12-11T09:11:34;17.40;51.10
23377;DHT22;14353;46.070;13.222;2022-12-11T09:14:04;17.40;51.10
23377;DHT22;14353;46.070;13.222;2022-12-11T09:16:31;17.40;51.10
23377;DHT22;14353;46.070;13.222;2022-12-11T09:19:12;17.40;51.20
23377;DHT22;14353;46.070;13.222;2022-12-11T09:21:39;17.40;51.10
23377;DHT22;14353;46.070;13.222;2022-12-11T09:24:11;17.40;51.10
23377;DHT22;14353;46.070;13.222;2022-12-11T09:26:37;17.40;51.10
23377;DHT22;14353;46.070;13.222;2022-12-11T09:29:10;17.40;51.10
23377;DHT22;14353;46.070;13.222;2022-12-11T09:31:36;17.40;51.10
23377;DHT22;14353;46.070;13.222;2022-12-11T09:34:06;17.40;51.10
23377;DHT22;14353;46.070;13.222;2022-12-11T09:36:36;17.40;51.10
23377;DHT22;14353;46.070;13.222;2022-12-11T09:39:07;17.40;51.00
23377;DHT22;14353;46.070;13.222;2022-12-11T09:44:42;17.40;51.00
23377;DHT22;14353;46.070;13.222;2022-12-11T09:47:22;17.40;51.00
23377;DHT22;14353;46.070;13.222;2022-12-11T09:50:17;17.40;51.00
23377;DHT22;14353;46.070;13.222;2022-12-11T09:55:16;17.30;50.90
23377;DHT22;14353;46.070;13.222;2022-12-11T10:00:49;17.30;50.90
23377;DHT22;14353;46.070;13.222;2022-12-11T10:03:41;17.40;50.90
23377;DHT22;14353;46.070;13.222;2022-12-11T10:17:28;17.30;50.80
23377;DHT22;14353;46.070;13.222;2022-12-11T10:20:06;17.30;50.90
23377;DHT22;14353;46.070;13.222;2022-12-11T10:22:35;17.30;51.00
23377;DHT22;14353;46.070;13.222;2022-12-11T10:25:09;17.30;50.80
23377;DHT22;14353;46.070;13.222;2022-12-11T10:27:39;17.30;50.80
23377;DHT22;14353;46.070;13.222;2022-12-11T10:30:16;17.30;50.80
23377;DHT22;14353;46.070;13.222;2022-12-11T10:36:11;17.30;50.80
23377;DHT22;14353;46.070;13.222;2022-12-11T10:38:15;17.30;50.80
23377;DHT22;14353;46.070;13.222;2022-12-11T10:43:37;17.30;50.80
23377;DHT22;14353;46.070;13.222;2022-12-11T10:48:57;17.30;50.80
23377;DHT22;14353;46.070;13.222;2022-12-11T10:51:35;17.30;50.70
23377;DHT22;14353;46.070;13.222;2022-12-11T10:54:26;17.30;50.70
23377;DHT22;14353;46.070;13.222;2022-12-11T10:56:54;17.30;50.70
23377;DHT22;14353;46.070;13.222;2022-12-11T10:59:32;17.30;50.70
23377;DHT22;14353;46.070;13.222;2022-12-11T11:02:01;17.30;50.70
23377;DHT22;14353;46.070;13.222;2022-12-11T11:04:35;17.30;50.70
23377;DHT22;14353;46.070;13.222;2022-12-11T11:07:13;17.20;50.60
23377;DHT22;14353;46.070;13.222;2022-12-11T11:09:41;17.20;50.70
23377;DHT22;14353;46.070;13.222;2022-12-11T11:12:24;17.30;50.70
23377;DHT22;14353;46.070;13.222;2022-12-11T11:15:10;17.20;50.70
23377;DHT22;14353;46.070;13.222;2022-12-11T11:17:55;17.20;50.60
23377;DHT22;14353;46.070;13.222;2022-12-11T11:20:32;17.30;50.70
23377;DHT22;14353;46.070;13.222;2022-12-11T11:23:07;17.30;51.30
23377;DHT22;14353;46.070;13.222;2022-12-11T11:25:43;17.20;50.60
23377;DHT22;14353;46.070;13.222;2022-12-11T11:28:27;17.20;50.60
23377;DHT22;14353;46.070;13.222;2022-12-11T11:31:09;17.20;50.60
23377;DHT22;14353;46.070;13.222;2022-12-11T11:34:05;17.20;50.60
23377;DHT22;14353;46.070;13.222;2022-12-11T11:36:41;17.20;50.70
23377;DHT22;14353;46.070;13.222;2022-12-11T11:39:19;17.20;50.60
23377;DHT22;14353;46.070;13.222;2022-12-11T11:42:12;17.20;50.60
23377;DHT22;14353;46.070;13.222;2022-12-11T11:45:27;17.20;50.60
23377;DHT22;14353;46.070;13.222;2022-12-11T11:50:47;17.20;50.60
23377;DHT22;14353;46.070;13.222;2022-12-11T11:53:37;17.20;50.60
23377;DHT22;14353;46.070;13.222;2022-12-11T11:58:52;17.20;50.60
23377;DHT22;14353;46.070;13.222;2022-12-11T12:01:29;17.20;50.60
23377;DHT22;14353;46.070;13.222;2022-12-11T12:03:55;17.20;50.60
23377;DHT22;14353;46.070;13.222;2022-12-11T12:09:18;17.20;50.60
23377;DHT22;14353;46.070;13.222;2022-12-11T12:12:01;17.10;50.60
23377;DHT22;14353;46.070;13.222;2022-12-11T12:14:38;17.20;50.70
23377;DHT22;14353;46.070;13.222;2022-12-11T12:23:05;17.20;50.60
23377;DHT22;14353;46.070;13.222;2022-12-11T12:39:00;17.20;50.60
23377;DHT22;14353;46.070;13.222;2022-12-11T12:44:16;17.10;50.60
23377;DHT22;14353;46.070;13.222;2022-12-11T12:49:51;17.10;50.60
23377;DHT22;14353;46.070;13.222;2022-12-11T12:52:41;17.10;50.50
23377;DHT22;14353;46.070;13.222;2022-12-11T12:55:21;17.10;50.60
23377;DHT22;14353;46.070;13.222;2022-12-11T12:58:00;17.10;50.60
23377;DHT22;14353;46.070;13.222;2022-12-11T13:03:17;17.10;50.60
23377;DHT22;14353;46.070;13.222;2022-12-11T13:06:02;17.10;50.50
23377;DHT22;14353;46.070;13.222;2022-12-11T13:08:49;17.10;50.50
23377;DHT22;14353;46.070;13.222;2022-12-11T13:11:19;17.10;50.50
23377;DHT22;14353;46.070;13.222;2022-12-11T13:14:26;17.10;50.50
23377;DHT22;14353;46.070;13.222;2022-12-11T13:20:05;17.10;50.50
23377;DHT22;14353;46.070;13.222;2022-12-11T13:22:33;17.10;50.50
23377;DHT22;14353;46.070;13.222;2022-12-11T13:33:55;17.10;50.50
23377;DHT22;14353;46.070;13.222;2022-12-11T13:36:24;17.00;50.40
23377;DHT22;14353;46.070;13.222;2022-12-11T13:39:36;17.00;50.40
23377;DHT22;14353;46.070;13.222;2022-12-11T13:41:50;17.00;50.50
23377;DHT22;14353;46.070;13.222;2022-12-11T13:44:33;17.00;50.40
23377;DHT22;14353;46.070;13.222;2022-12-11T13:47:06;17.00;50.40
23377;DHT22;14353;46.070;13.222;2022-12-11T13:49:37;17.00;50.40
23377;DHT22;14353;46.070;13.222;2022-12-11T13:52:17;17.00;50.40
23377;DHT22;14353;46.070;13.222;2022-12-11T13:54:51;17.00;50.40
23377;DHT22;14353;46.070;13.222;2022-12-11T13:57:19;17.00;50.40
23377;DHT22;14353;46.070;13.222;2022-12-11T13:59:53;17.00;50.40
23377;DHT22;14353;46.070;13.222;2022-12-11T14:02:25;17.00;50.40
23377;DHT22;14353;46.070;13.222;2022-12-11T14:04:57;17.00;50.30
23377;DHT22;14353;46.070;13.222;2022-12-11T14:07:33;17.00;50.40
23377;DHT22;14353;46.070;13.222;2022-12-11T14:10:21;17.00;50.30
23377;DHT22;14353;46.070;13.222;2022-12-11T14:13:18;17.00;50.40
23377;DHT22;14353;46.070;13.222;2022-12-11T14:15:52;17.00;50.40
23377;DHT22;14353;46.070;13.222;2022-12-11T14:18:27;17.00;50.30
23377;DHT22;14353;46.070;13.222;2022-12-11T14:21:05;17.00;50.30
23377;DHT22;14353;46.070;13.222;2022-12-11T14:23:35;17.00;50.40
23377;DHT22;14353;46.070;13.222;2022-12-11T14:29:02;17.00;50.30
23377;DHT22;14353;46.070;13.222;2022-12-11T14:31:35;17.00;50.30
23377;DHT22;14353;46.070;13.222;2022-12-11T14:34:15;17.00;50.30
23377;DHT22;14353;46.070;13.222;2022-12-11T14:36:42;17.00;50.30
23377;DHT22;14353;46.070;13.222;2022-12-11T14:39:34;17.00;50.30
23377;DHT22;14353;46.070;13.222;2022-12-11T14:42:13;17.00;50.30
23377;DHT22;14353;46.070;13.222;2022-12-11T14:44:54;17.00;50.30
23377;DHT22;14353;46.070;13.222;2022-12-11T14:47:27;16.90;50.30
23377;DHT22;14353;46.070;13.222;2022-12-11T14:52:52;16.90;50.30
23377;DHT22;14353;46.070;13.222;2022-12-11T14:55:30;16.90;50.30
23377;DHT22;14353;46.070;13.222;2022-12-11T14:58:02;16.90;50.30
23377;DHT22;14353;46.070;13.222;2022-12-11T15:00:30;16.90;50.30
23377;DHT22;14353;46.070;13.222;2022-12-11T15:03:02;16.90;50.30
23377;DHT22;14353;46.070;13.222;2022-12-11T15:05:29;16.90;50.30
23377;DHT22;14353;46.070;13.222;2022-12-11T15:08:19;16.90;50.30
23377;DHT22;14353;46.070;13.222;2022-12-11T15:13:36;16.90;50.30
23377;DHT22;14353;46.070;13.222;2022-12-11T15:16:05;16.90;50.30
23377;DHT22;14353;46.070;13.222;2022-12-11T15:18:35;16.90;50.30
23377;DHT22;14353;46.070;13.222;2022-12-11T15:21:06;16.90;50.30
23377;DHT22;14353;46.070;13.222;2022-12-11T15:23:58;16.80;50.30
23377;DHT22;14353;46.070;13.222;2022-12-11T15:26:35;16.90;50.30
23377;DHT22;14353;46.070;13.222;2022-12-11T15:29:19;16.80;50.30
23377;DHT22;14353;46.070;13.222;2022-12-11T15:34:47;16.80;50.30
23377;DHT22;14353;46.070;13.222;2022-12-11T15:37:33;16.80;50.30
23377;DHT22;14353;46.070;13.222;2022-12-11T15:40:09;16.80;50.30
23377;DHT22;14353;46.070;13.222;2022-12-11T15:42:40;16.80;50.30
23377;DHT22;14353;46.070;13.222;2022-12-11T15:45:08;16.80;50.30
23377;DHT22;14353;46.070;13.222;2022-12-11T15:47:42;16.80;50.30
23377;DHT22;14353;46.070;13.222;2022-12-11T15:50:21;16.80;50.30
23377;DHT22;14353;46.070;13.222;2022-12-11T15:52:48;16.80;50.30
23377;DHT22;14353;46.070;13.222;2022-12-11T15:55:17;16.80;50.30
23377;DHT22;14353;46.070;13.222;2022-12-11T15:57:50;16.80;50.30
23377;DHT22;14353;46.070;13.222;2022-12-11T16:00:17;16.80;50.30
23377;DHT22;14353;46.070;13.222;2022-12-11T16:02:44;16.80;50.30
23377;DHT22;14353;46.070;13.222;2022-12-11T16:05:10;16.80;50.30
23377;DHT22;14353;46.070;13.222;2022-12-11T16:07:40;16.80;50.30
23377;DHT22;14353;46.070;13.222;2022-12-11T16:10:09;16.80;50.30
23377;DHT22;14353;46.070;13.222;2022-12-11T16:12:37;16.80;50.30
23377;DHT22;14353;46.070;13.222;2022-12-11T16:15:03;16.80;50.30
23377;DHT22;14353;46.070;13.222;2022-12-11T16:17:29;16.80;50.30
23377;DHT22;14353;46.070;13.222;2022-12-11T16:19:58;16.80;50.30
23377;DHT22;14353;46.070;13.222;2022-12-11T16:22:26;16.80;50.30
23377;DHT22;14353;46.070;13.222;2022-12-11T16:24:53;16.80;50.30
23377;DHT22;14353;46.070;13.222;2022-12-11T16:27:19;16.80;50.30
23377;DHT22;14353;46.070;13.222;2022-12-11T16:29:46;16.80;50.30
23377;DHT22;14353;46.070;13.222;2022-12-11T16:32:14;16.80;50.30
23377;DHT22;14353;46.070;13.222;2022-12-11T16:34:40;16.80;50.30
23377;DHT22;14353;46.070;13.222;2022-12-11T16:37:07;16.70;50.30
23377;DHT22;14353;46.070;13.222;2022-12-11T16:39:34;16.70;50.30
23377;DHT22;14353;46.070;13.222;2022-12-11T16:42:02;16.70;50.30
23377;DHT22;14353;46.070;13.222;2022-12-11T16:44:30;16.70;50.20
23377;DHT22;14353;46.070;13.222;2022-12-11T16:46:59;16.70;50.20
23377;DHT22;14353;46.070;13.222;2022-12-11T16:49:29;16.70;50.20
23377;DHT22;14353;46.070;13.222;2022-12-11T16:51:58;16.70;50.20
23377;DHT22;14353;46.070;13.222;2022-12-11T16:54:26;16.70;50.20
23377;DHT22;14353;46.070;13.222;2022-12-11T16:56:57;16.70;50.20
23377;DHT22;14353;46.070;13.222;2022-12-11T16:59:23;16.70;50.20
23377;DHT22;14353;46.070;13.222;2022-12-11T17:01:49;16.70;50.20
23377;DHT22;14353;46.070;13.222;2022-12-11T17:04:15;16.70;50.20
23377;DHT22;14353;46.070;13.222;2022-12-11T17:06:41;16.70;50.20
23377;DHT22;14353;46.070;13.222;2022-12-11T17:09:07;16.70;50.20
23377;DHT22;14353;46.070;13.222;2022-12-11T17:11:32;16.70;50.20
23377;DHT22;14353;46.070;13.222;2022-12-11T17:13:59;16.70;50.30
23377;DHT22;14353;46.070;13.222;2022-12-11T17:16:28;16.70;50.20
23377;DHT22;14353;46.070;13.222;2022-12-11T17:18:59;16.70;50.20
23377;DHT22;14353;46.070;13.222;2022-12-11T17:21:25;16.70;50.20
23377;DHT22;14353;46.070;13.222;2022-12-11T17:23:50;16.70;50.20
23377;DHT22;14353;46.070;13.222;2022-12-11T17:26:19;16.70;50.20
23377;DHT22;14353;46.070;13.222;2022-12-11T17:29:00;16.70;50.20
23377;DHT22;14353;46.070;13.222;2022-12-11T17:31:29;16.70;50.20
23377;DHT22;14353;46.070;13.222;2022-12-11T17:33:57;16.70;50.20